createdAt,value
2019-01-03T00:01:18.564Z,90.10
2019-01-03T00:04:05.013Z,90.10
2019-01-03T00:06:52.810Z,90.10
2019-01-03T00:09:40.475Z,90.30
2019-01-03T00:12:26.747Z,90.10
2019-01-03T00:15:14.381Z,90.40
2019-01-03T00:18:00.485Z,90.10
2019-01-03T00:20:51.136Z,90.50
2019-01-03T00:23:49.101Z,90.70
2019-01-03T00:26:46.665Z,90.80
2019-01-03T00:29:46.001Z,91.00
2019-01-03T00:32:34.785Z,91.40
2019-01-03T00:35:28.175Z,92.00
2019-01-03T00:38:14.739Z,91.70
2019-01-03T00:41:03.275Z,91.90
2019-01-03T00:43:45.613Z,91.90
2019-01-03T00:46:39.848Z,92.30
2019-01-03T00:49:26.078Z,92.70
2019-01-03T00:52:09.768Z,92.30
2019-01-03T00:54:53.792Z,92.60
2019-01-03T00:57:41.425Z,92.70
2019-01-03T01:00:28.384Z,92.90
2019-01-03T01:03:16.115Z,92.50
2019-01-03T01:06:02.405Z,92.30
2019-01-03T01:09:03.972Z,92.90
2019-01-03T01:11:58.050Z,92.90
2019-01-03T01:14:44.390Z,92.90
2019-01-03T01:17:32.132Z,93.10
2019-01-03T01:20:28.555Z,93.00
2019-01-03T01:23:21.958Z,93.50
2019-01-03T01:26:03.280Z,93.30
2019-01-03T01:28:54.101Z,93.30
2019-01-03T01:31:47.708Z,93.50
2019-01-03T01:34:35.582Z,93.60
2019-01-03T01:37:29.101Z,93.60
2019-01-03T01:40:15.483Z,93.10
2019-01-03T01:43:21.472Z,93.00
2019-01-03T01:46:09.303Z,92.90
2019-01-03T01:48:59.844Z,93.00
2019-01-03T01:51:56.616Z,93.00
2019-01-03T01:54:49.889Z,93.10
2019-01-03T01:57:49.568Z,93.40
2019-01-03T02:00:52.423Z,93.70
2019-01-03T02:03:58.264Z,93.90
2019-01-03T02:06:49.901Z,94.00
2019-01-03T02:09:31.431Z,94.30
2019-01-03T02:12:22.520Z,94.50
2019-01-03T02:15:12.980Z,94.90
2019-01-03T02:18:01.415Z,94.10
2019-01-03T02:20:47.665Z,94.20
2019-01-03T02:23:44.569Z,94.30
2019-01-03T02:26:32.065Z,94.40
2019-01-03T02:29:18.522Z,94.20
2019-01-03T02:32:12.455Z,94.30
2019-01-03T02:34:59.160Z,94.50
2019-01-03T02:38:01.876Z,94.50
2019-01-03T02:40:48.216Z,94.60
2019-01-03T02:43:38.637Z,94.50
2019-01-03T02:46:25.178Z,94.70
2019-01-03T02:49:28.432Z,94.70
2019-01-03T02:52:11.866Z,94.70
2019-01-03T02:54:58.120Z,95.00
2019-01-03T02:57:44.737Z,95.20
2019-01-03T03:00:32.939Z,95.60
2019-01-03T03:03:35.997Z,95.60
2019-01-03T03:06:16.516Z,95.40
2019-01-03T03:09:10.268Z,95.30
2019-01-03T03:11:56.701Z,95.80
2019-01-03T03:14:53.779Z,95.40
2019-01-03T03:17:56.836Z,95.60
2019-01-03T03:20:53.641Z,95.70
2019-01-03T03:23:39.785Z,95.50
2019-01-03T03:26:27.464Z,95.60
2019-01-03T03:29:30.156Z,95.90
2019-01-03T03:32:16.693Z,96.00
2019-01-03T03:35:13.194Z,95.80
2019-01-03T03:38:06.794Z,96.30
2019-01-03T03:40:52.977Z,96.60
2019-01-03T03:43:39.354Z,97.00
2019-01-03T03:46:25.730Z,97.00
2019-01-03T03:49:18.147Z,97.20
2019-01-03T03:52:07.202Z,97.40
2019-01-03T03:54:53.477Z,97.90
2019-01-03T03:57:44.381Z,98.20
2019-01-03T04:00:41.043Z,98.00
2019-01-03T04:03:40.846Z,98.10
2019-01-03T04:06:40.266Z,98.00
2019-01-03T04:09:27.965Z,97.70
2019-01-03T04:12:14.012Z,98.10
2019-01-03T04:15:13.806Z,98.20
2019-01-03T04:18:01.973Z,98.00
2019-01-03T04:20:49.881Z,97.90
2019-01-03T04:23:40.563Z,97.90
2019-01-03T04:26:37.459Z,98.40
2019-01-03T04:29:25.184Z,98.30
2019-01-03T04:32:19.206Z,98.40
2019-01-03T04:35:25.127Z,98.90
2019-01-03T04:38:07.268Z,98.90
2019-01-03T04:40:57.728Z,98.90
2019-01-03T04:43:43.842Z,99.10
2019-01-03T04:46:37.513Z,99.00
2019-01-03T04:49:24.208Z,98.90
2019-01-03T04:52:10.303Z,98.90
2019-01-03T04:54:56.243Z,98.90
2019-01-03T04:57:46.919Z,98.70
2019-01-03T05:00:37.852Z,98.60
2019-01-03T05:03:34.413Z,98.50
2019-01-03T05:06:25.113Z,98.40
2019-01-03T05:09:18.652Z,98.50
2019-01-03T05:12:04.943Z,98.50
2019-01-03T05:14:55.507Z,98.40
2019-01-03T05:17:42.203Z,98.40
2019-01-03T05:20:45.277Z,98.30
2019-01-03T05:23:48.105Z,98.30
2019-01-03T05:26:34.580Z,98.10
2019-01-03T05:29:20.906Z,98.20
2019-01-03T05:32:20.699Z,98.30
2019-01-03T05:35:13.968Z,98.30
2019-01-03T05:38:00.519Z,98.30
2019-01-03T05:40:45.857Z,98.10
2019-01-03T05:43:33.516Z,98.30
2019-01-03T05:46:39.564Z,98.30
2019-01-03T05:49:25.893Z,98.30
2019-01-03T05:52:11.950Z,98.30
2019-01-03T05:55:08.535Z,98.20
2019-01-03T05:57:54.728Z,98.50
2019-01-03T06:00:48.262Z,98.20
2019-01-03T06:03:36.002Z,98.30
2019-01-03T06:06:26.536Z,98.20
2019-01-03T06:09:23.056Z,98.50
2019-01-03T06:12:20.895Z,98.60
2019-01-03T06:14:57.407Z,98.70
2019-01-03T06:17:45.481Z,98.80
2019-01-03T06:20:31.783Z,98.60
2019-01-03T06:23:28.932Z,98.70
2019-01-03T06:26:15.880Z,99.10
2019-01-03T06:29:15.737Z,99.20
2019-01-03T06:32:18.797Z,99.40
2019-01-03T06:35:17.089Z,99.20
2019-01-03T06:38:02.527Z,99.50
2019-01-03T06:40:49.334Z,99.80
2019-01-03T06:43:36.992Z,99.80
2019-01-03T06:46:23.149Z,99.70
2019-01-03T06:49:09.699Z,99.90
2019-01-03T06:51:55.982Z,99.90
2019-01-03T06:54:42.228Z,99.90
2019-01-03T06:57:30.047Z,99.90
2019-01-03T07:00:17.550Z,99.90
2019-01-03T07:03:01.697Z,99.90
2019-01-03T07:06:04.643Z,99.90
2019-01-03T07:09:04.606Z,99.90
2019-01-03T07:11:52.230Z,99.90
2019-01-03T07:14:38.823Z,99.90
2019-01-03T07:17:25.120Z,99.90
2019-01-03T07:20:18.660Z,99.90
2019-01-03T07:23:07.111Z,99.90
2019-01-03T07:25:53.567Z,99.90
2019-01-03T07:28:39.796Z,99.90
2019-01-03T07:31:30.311Z,99.90
2019-01-03T07:34:30.391Z,99.90
2019-01-03T07:37:13.168Z,99.90
2019-01-03T07:40:13.525Z,99.90
2019-01-03T07:43:00.708Z,99.90
2019-01-03T07:45:54.405Z,99.90
2019-01-03T07:48:41.098Z,99.90
2019-01-03T07:51:40.838Z,99.90
2019-01-03T07:54:31.536Z,99.90
2019-01-03T07:57:24.863Z,99.90
2019-01-03T08:00:12.700Z,99.90
2019-01-03T08:03:00.586Z,99.90
2019-01-03T08:05:46.087Z,99.90
2019-01-03T08:08:36.604Z,99.90
2019-01-03T08:11:24.509Z,99.90
2019-01-03T08:14:10.749Z,99.90
2019-01-03T08:16:56.952Z,99.90
2019-01-03T08:20:00.079Z,99.90
2019-01-03T08:22:46.832Z,99.90
2019-01-03T08:25:37.510Z,99.90
2019-01-03T08:28:37.467Z,99.90
2019-01-03T08:31:24.005Z,99.90
2019-01-03T08:34:26.909Z,99.90
2019-01-03T08:37:23.979Z,99.90
2019-01-03T08:40:08.482Z,99.90
2019-01-03T08:42:54.774Z,99.90
2019-01-03T08:45:41.047Z,99.90
2019-01-03T08:48:40.986Z,99.90
2019-01-03T08:51:44.871Z,99.90
2019-01-03T08:54:31.522Z,99.90
2019-01-03T08:57:17.335Z,99.90
2019-01-03T09:00:03.886Z,99.90
2019-01-03T09:02:50.330Z,99.90
2019-01-03T09:05:37.287Z,99.90
2019-01-03T09:08:31.348Z,99.90
2019-01-03T09:11:27.480Z,99.90
2019-01-03T09:14:21.717Z,99.90
2019-01-03T09:17:09.510Z,99.90
2019-01-03T09:20:12.422Z,99.90
2019-01-03T09:23:02.447Z,99.90
2019-01-03T09:25:52.100Z,99.90
2019-01-03T09:28:35.389Z,99.90
2019-01-03T09:31:24.099Z,99.90
2019-01-03T09:34:14.633Z,99.90
2019-01-03T09:36:55.812Z,99.90
2019-01-03T09:39:58.614Z,99.90
2019-01-03T09:42:44.951Z,99.90
2019-01-03T09:45:13.196Z,99.90
2019-01-03T09:47:41.499Z,99.90
2019-01-03T09:50:09.905Z,99.90
2019-01-03T09:52:38.104Z,99.90
2019-01-03T09:55:06.230Z,99.90
2019-01-03T09:57:34.333Z,99.90
2019-01-03T10:00:02.666Z,99.90
2019-01-03T10:02:31.034Z,99.90
2019-01-03T10:04:59.507Z,99.90
2019-01-03T10:07:27.744Z,99.90
2019-01-03T10:09:56.079Z,99.90
2019-01-03T10:12:24.213Z,99.90
2019-01-03T10:14:52.346Z,99.90
2019-01-03T10:17:20.752Z,99.90
2019-01-03T10:19:49.889Z,99.90
2019-01-03T10:22:18.068Z,99.90
2019-01-03T10:24:46.158Z,99.90
2019-01-03T10:27:14.285Z,99.90
2019-01-03T10:29:42.418Z,99.90
2019-01-03T10:32:10.908Z,99.90
2019-01-03T10:34:39.201Z,99.90
2019-01-03T10:37:07.346Z,99.90
2019-01-03T10:39:35.540Z,99.90
2019-01-03T10:42:03.726Z,99.90
2019-01-03T10:44:31.835Z,99.90
2019-01-03T10:47:00.530Z,99.90
2019-01-03T10:49:28.678Z,99.90
2019-01-03T10:51:56.753Z,99.90
2019-01-03T10:54:24.834Z,99.90
2019-01-03T10:56:53.047Z,99.90
2019-01-03T10:59:21.617Z,99.90
2019-01-03T11:01:50.584Z,99.90
2019-01-03T11:04:18.714Z,99.90
2019-01-03T11:06:47.075Z,99.90
2019-01-03T11:09:15.319Z,99.90
2019-01-03T11:11:43.457Z,99.90
2019-01-03T11:14:12.585Z,99.90
2019-01-03T11:16:41.295Z,99.90
2019-01-03T11:19:09.857Z,99.90
2019-01-03T11:21:38.185Z,99.90
2019-01-03T11:24:06.324Z,99.90
2019-01-03T11:26:34.528Z,99.90
2019-01-03T11:29:02.717Z,99.90
2019-01-03T11:31:30.879Z,99.90
2019-01-03T11:33:59.053Z,99.90
2019-01-03T11:36:27.169Z,99.90
2019-01-03T11:38:55.238Z,99.60
2019-01-03T11:41:23.310Z,99.90
2019-01-03T11:43:51.392Z,98.50
2019-01-03T11:46:20.934Z,98.60
2019-01-03T11:48:49.010Z,98.70
2019-01-03T11:51:17.138Z,99.10
2019-01-03T11:53:45.316Z,99.10
2019-01-03T11:56:14.239Z,98.20
2019-01-03T11:58:42.312Z,98.00
2019-01-03T12:01:10.498Z,98.10
2019-01-03T12:03:38.595Z,97.50
2019-01-03T12:06:06.830Z,97.90
2019-01-03T12:08:34.915Z,97.80
2019-01-03T12:11:03.137Z,97.70
2019-01-03T12:13:31.279Z,97.90
2019-01-03T12:15:59.429Z,97.80
2019-01-03T12:18:27.558Z,97.60
2019-01-03T12:20:55.676Z,97.30
2019-01-03T12:23:23.786Z,97.10
2019-01-03T12:25:51.889Z,97.20
2019-01-03T12:28:20.089Z,97.20
2019-01-03T12:30:48.471Z,96.90
2019-01-03T12:33:16.609Z,96.80
2019-01-03T12:35:45.653Z,96.50
2019-01-03T12:38:13.949Z,95.90
2019-01-03T12:40:42.152Z,96.60
2019-01-03T12:43:10.368Z,96.20
2019-01-03T12:45:39.034Z,96.30
2019-01-03T12:48:08.154Z,96.10
2019-01-03T12:50:37.396Z,96.00
2019-01-03T12:53:06.153Z,96.10
2019-01-03T12:55:34.916Z,96.00
2019-01-03T12:58:03.663Z,95.80
2019-01-03T13:00:33.207Z,96.20
2019-01-03T13:03:02.430Z,96.50
2019-01-03T13:05:31.480Z,96.40
2019-01-03T13:08:00.378Z,96.30
2019-01-03T13:10:31.974Z,95.80
2019-01-03T13:13:00.465Z,96.00
2019-01-03T13:15:28.815Z,96.50
2019-01-03T13:17:56.915Z,96.30
2019-01-03T13:20:25.547Z,96.00
2019-01-03T13:22:54.670Z,96.00
2019-01-03T13:25:22.742Z,95.90
2019-01-03T13:27:51.379Z,95.80
2019-01-03T13:30:19.631Z,96.10
2019-01-03T13:32:48.395Z,95.90
2019-01-03T13:35:17.796Z,95.80
2019-01-03T13:37:45.935Z,96.10
2019-01-03T13:40:14.251Z,95.90
2019-01-03T13:42:43.020Z,95.80
2019-01-03T13:45:12.369Z,95.70
2019-01-03T13:47:40.657Z,95.80
2019-01-03T13:50:08.728Z,96.00
2019-01-03T13:52:36.879Z,95.60
2019-01-03T13:55:05.284Z,95.80
2019-01-03T13:57:33.525Z,95.70
2019-01-03T14:00:01.658Z,95.60
2019-01-03T14:02:29.871Z,95.70
2019-01-03T14:04:58.006Z,95.80
2019-01-03T14:07:26.047Z,95.70
2019-01-03T14:09:54.115Z,95.90
2019-01-03T14:12:23.434Z,96.10
2019-01-03T14:14:53.306Z,96.00
2019-01-03T14:17:21.355Z,96.00
2019-01-03T14:19:49.603Z,96.10
2019-01-03T14:22:17.781Z,96.30
2019-01-03T14:24:45.887Z,96.60
2019-01-03T14:27:14.011Z,96.30
2019-01-03T14:29:42.099Z,96.30
2019-01-03T14:32:10.133Z,96.10
2019-01-03T14:34:38.290Z,96.40
2019-01-03T14:37:06.439Z,96.60
2019-01-03T14:39:35.906Z,96.90
2019-01-03T14:42:05.503Z,97.40
2019-01-03T14:44:35.414Z,97.90
2019-01-03T14:47:03.639Z,98.50
2019-01-03T14:49:31.754Z,98.60
2019-01-03T14:52:00.222Z,99.00
2019-01-03T14:54:29.834Z,99.80
2019-01-03T14:56:59.266Z,99.40
2019-01-03T14:59:27.750Z,99.30
2019-01-03T15:01:57.052Z,99.90
2019-01-03T15:04:25.299Z,99.90
2019-01-03T15:06:53.450Z,99.90
2019-01-03T15:09:21.664Z,99.90
2019-01-03T15:11:49.976Z,99.90
2019-01-03T15:14:18.309Z,99.90
2019-01-03T15:16:46.436Z,99.90
2019-01-03T15:19:14.690Z,99.90
2019-01-03T15:21:44.065Z,99.90
2019-01-03T15:24:12.403Z,99.90
2019-01-03T15:26:40.717Z,99.90
2019-01-03T15:29:09.452Z,99.90
2019-01-03T15:31:37.631Z,99.90
2019-01-03T15:34:05.751Z,99.90
2019-01-03T15:36:33.932Z,99.90
2019-01-03T15:39:02.152Z,99.90
2019-01-03T15:41:30.411Z,99.90
2019-01-03T15:43:58.699Z,99.90
2019-01-03T15:46:26.829Z,99.90
2019-01-03T15:48:54.949Z,99.90
2019-01-03T15:51:23.120Z,99.90
2019-01-03T15:53:51.288Z,99.90
2019-01-03T15:56:19.371Z,99.90
2019-01-03T15:58:47.562Z,99.90
2019-01-03T16:01:15.642Z,99.90
2019-01-03T16:03:43.742Z,99.90
2019-01-03T16:06:11.861Z,99.90
2019-01-03T16:08:40.048Z,99.90
2019-01-03T16:11:08.102Z,99.90
2019-01-03T16:13:36.436Z,99.90
2019-01-03T16:16:04.553Z,99.90
2019-01-03T16:18:32.643Z,99.90
2019-01-03T16:21:01.046Z,99.90
2019-01-03T16:23:29.139Z,99.90
2019-01-03T16:25:57.417Z,99.90
2019-01-03T16:28:25.606Z,99.90
2019-01-03T16:30:53.746Z,99.90
2019-01-03T16:33:22.078Z,99.90
2019-01-03T16:35:50.264Z,99.90
2019-01-03T16:38:18.410Z,99.90
2019-01-03T16:40:46.501Z,99.90
2019-01-03T16:43:14.653Z,99.90
2019-01-03T16:45:42.747Z,99.90
2019-01-03T16:48:10.931Z,99.90
2019-01-03T16:50:39.030Z,99.90
2019-01-03T16:53:07.112Z,99.90
2019-01-03T16:55:35.239Z,99.90
2019-01-03T16:58:03.328Z,99.90
2019-01-03T17:00:31.523Z,99.90
2019-01-03T17:03:00.091Z,99.90
2019-01-03T17:05:28.520Z,99.90
2019-01-03T17:07:56.604Z,99.90
2019-01-03T17:10:24.762Z,99.90
2019-01-03T17:12:53.944Z,99.90
2019-01-03T17:15:22.394Z,99.90
2019-01-03T17:17:50.630Z,99.90
2019-01-03T17:20:18.850Z,99.90
2019-01-03T17:22:47.019Z,99.90
2019-01-03T17:25:15.148Z,99.90
2019-01-03T17:27:43.524Z,99.90
2019-01-03T17:30:12.549Z,99.90
2019-01-03T17:32:41.630Z,99.90
2019-01-03T17:35:11.384Z,99.90
2019-01-03T17:37:39.701Z,99.90
2019-01-03T17:40:11.492Z,99.90
2019-01-03T17:42:40.675Z,99.90
2019-01-03T17:45:09.427Z,99.90
2019-01-03T17:47:37.680Z,99.90
2019-01-03T17:50:07.748Z,99.90
2019-01-03T17:52:35.831Z,99.90
2019-01-03T17:55:05.453Z,99.90
2019-01-03T17:57:33.577Z,99.90
2019-01-03T18:00:01.758Z,99.90
2019-01-03T18:02:29.990Z,99.90
2019-01-03T18:04:58.071Z,99.90
2019-01-03T18:07:26.136Z,99.90
2019-01-03T18:09:56.714Z,99.90
2019-01-03T18:12:24.930Z,99.90
2019-01-03T18:14:53.105Z,99.90
2019-01-03T18:17:21.623Z,99.90
2019-01-03T18:19:50.136Z,99.90
2019-01-03T18:22:18.255Z,99.90
2019-01-03T18:24:46.448Z,99.90
2019-01-03T18:27:14.830Z,99.90
2019-01-03T18:29:42.899Z,99.90
2019-01-03T18:32:11.332Z,99.90
2019-01-03T18:34:39.805Z,99.90
2019-01-03T18:37:08.060Z,99.90
2019-01-03T18:39:36.262Z,99.90
2019-01-03T18:42:04.514Z,99.90
2019-01-03T18:44:33.285Z,99.90
2019-01-03T18:47:01.418Z,99.90
2019-01-03T18:49:29.642Z,99.90
2019-01-03T18:51:57.788Z,99.90
2019-01-03T18:54:25.959Z,99.90
2019-01-03T18:56:54.216Z,99.90
2019-01-03T18:59:22.470Z,99.90
2019-01-03T19:01:50.576Z,99.90
2019-01-03T19:04:18.638Z,99.90
2019-01-03T19:06:46.844Z,99.90
2019-01-03T19:09:14.999Z,99.90
2019-01-03T19:11:43.536Z,99.90
2019-01-03T19:14:11.860Z,99.90
2019-01-03T19:16:41.132Z,99.90
2019-01-03T19:19:09.191Z,99.90
2019-01-03T19:21:37.244Z,99.90
2019-01-03T19:24:05.345Z,99.90
2019-01-03T19:26:33.393Z,99.90
2019-01-03T19:29:01.574Z,99.90
2019-01-03T19:31:29.869Z,99.90
2019-01-03T19:33:58.017Z,99.90
2019-01-03T19:36:26.254Z,99.90
2019-01-03T19:38:54.491Z,99.90
2019-01-03T19:41:22.838Z,99.90
2019-01-03T19:43:51.005Z,99.90
2019-01-03T19:46:19.160Z,99.90
2019-01-03T19:48:47.286Z,99.90
2019-01-03T19:51:15.464Z,99.90
2019-01-03T19:53:43.620Z,99.90
2019-01-03T19:56:11.835Z,99.90
2019-01-03T19:58:39.937Z,99.90
2019-01-03T20:01:08.025Z,99.90
2019-01-03T20:03:36.366Z,99.90
2019-01-03T20:06:04.796Z,99.90
2019-01-03T20:08:33.027Z,99.90
2019-01-03T20:11:01.156Z,99.90
2019-01-03T20:13:29.283Z,99.90
2019-01-03T20:15:57.453Z,99.90
2019-01-03T20:18:25.640Z,99.90
2019-01-03T20:20:53.781Z,99.90
2019-01-03T20:23:22.174Z,99.90
2019-01-03T20:25:51.640Z,99.90
2019-01-03T20:28:19.799Z,99.90
2019-01-03T20:30:47.974Z,99.90
2019-01-03T20:33:16.115Z,99.90
2019-01-03T20:35:44.245Z,99.90
2019-01-03T20:38:12.330Z,99.90
2019-01-03T20:40:40.489Z,99.90
2019-01-03T20:43:09.775Z,99.90
2019-01-03T20:45:37.984Z,99.90
2019-01-03T20:48:07.217Z,99.90
2019-01-03T20:50:36.670Z,99.90
2019-01-03T20:53:04.905Z,99.90
2019-01-03T20:55:33.034Z,99.90
2019-01-03T20:58:01.177Z,99.90
2019-01-03T21:00:29.254Z,99.90
2019-01-03T21:02:57.459Z,99.90
2019-01-03T21:05:25.981Z,99.90
2019-01-03T21:07:54.284Z,99.90
2019-01-03T21:10:22.429Z,99.90
2019-01-03T21:12:50.515Z,99.90
2019-01-03T21:15:19.438Z,99.90
2019-01-03T21:17:47.530Z,99.90
2019-01-03T21:20:16.765Z,99.90
2019-01-03T21:22:44.856Z,99.90
2019-01-03T21:25:13.777Z,99.90
2019-01-03T21:27:42.498Z,99.90
2019-01-03T21:30:17.674Z,99.90
2019-01-03T21:32:46.955Z,99.90
2019-01-03T21:35:16.039Z,99.90
2019-01-03T21:37:44.186Z,99.90
2019-01-03T21:40:12.381Z,99.90
2019-01-03T21:42:40.643Z,99.90
2019-01-03T21:45:08.935Z,99.90
2019-01-03T21:47:38.215Z,99.90
2019-01-03T21:50:09.919Z,99.90
2019-01-03T21:52:38.495Z,99.90
2019-01-03T21:55:06.735Z,99.90
2019-01-03T21:57:36.050Z,99.90
2019-01-03T22:00:08.385Z,99.90
2019-01-03T22:02:37.705Z,99.90
2019-01-03T22:05:07.329Z,99.90
2019-01-03T22:07:35.789Z,99.90
2019-01-03T22:10:05.818Z,99.90
2019-01-03T22:12:34.406Z,99.90
2019-01-03T22:15:02.508Z,99.90
2019-01-03T22:17:30.946Z,99.90
2019-01-03T22:19:59.143Z,99.90
2019-01-03T22:22:27.407Z,99.90
2019-01-03T22:24:55.521Z,99.90
2019-01-03T22:27:23.658Z,99.90
2019-01-03T22:29:51.728Z,99.90
2019-01-03T22:32:19.953Z,99.90
2019-01-03T22:34:48.130Z,99.90
2019-01-03T22:37:16.300Z,99.90
2019-01-03T22:39:44.389Z,99.90
2019-01-03T22:42:12.571Z,99.90
2019-01-03T22:44:40.667Z,99.90
2019-01-03T22:47:08.742Z,99.90
2019-01-03T22:49:36.963Z,99.90
2019-01-03T22:52:05.697Z,99.90
2019-01-03T22:54:33.856Z,99.90
2019-01-03T22:57:02.121Z,99.90
2019-01-03T22:59:30.191Z,99.90
2019-01-03T23:01:58.512Z,99.90
2019-01-03T23:04:26.778Z,99.90
2019-01-03T23:06:55.184Z,99.90
2019-01-03T23:09:23.278Z,99.90
2019-01-03T23:11:51.709Z,99.90
2019-01-03T23:14:19.820Z,99.90
2019-01-03T23:16:47.876Z,99.90
2019-01-03T23:19:15.975Z,99.90
2019-01-03T23:21:44.046Z,99.90
2019-01-03T23:24:12.399Z,99.90
2019-01-03T23:26:40.456Z,99.90
2019-01-03T23:29:08.572Z,99.90
2019-01-03T23:31:36.652Z,99.90
2019-01-03T23:34:05.082Z,99.90
2019-01-03T23:36:33.293Z,99.90
2019-01-03T23:39:01.476Z,99.90
2019-01-03T23:41:29.901Z,99.90
2019-01-03T23:43:57.998Z,99.90
2019-01-03T23:46:26.108Z,99.90
2019-01-03T23:48:54.502Z,99.90
2019-01-03T23:51:22.771Z,99.90
2019-01-03T23:53:50.891Z,99.90
2019-01-03T23:56:19.169Z,99.90
2019-01-03T23:58:47.238Z,99.90
